sensor_id;sensor_type;location;lat;lon;timestamp;temperature;humidity
1956;DHT22;978;48.314;11.562;2022-11-15T00:01:33;22.40;73.60
1956;DHT22;978;48.314;11.562;2022-11-15T00:04:00;22.40;73.60
1956;DHT22;978;48.314;11.562;2022-11-15T00:06:33;22.40;73.60
1956;DHT22;978;48.314;11.562;2022-11-15T00:09:02;22.40;73.50
1956;DHT22;978;48.314;11.562;2022-11-15T00:11:32;22.40;73.50
1956;DHT22;978;48.314;11.562;2022-11-15T00:14:00;22.40;73.50
1956;DHT22;978;48.314;11.562;2022-11-15T00:16:28;22.40;73.60
1956;DHT22;978;48.314;11.562;2022-11-15T00:18:55;22.40;73.60
1956;DHT22;978;48.314;11.562;2022-11-15T00:21:22;22.40;73.60
1956;DHT22;978;48.314;11.562;2022-11-15T00:23:51;22.40;73.60
1956;DHT22;978;48.314;11.562;2022-11-15T00:26:17;22.40;73.60
1956;DHT22;978;48.314;11.562;2022-11-15T00:28:44;22.40;73.60
1956;DHT22;978;48.314;11.562;2022-11-15T00:31:12;22.40;73.60
1956;DHT22;978;48.314;11.562;2022-11-15T00:33:39;22.40;73.60
1956;DHT22;978;48.314;11.562;2022-11-15T00:36:08;22.30;73.60
1956;DHT22;978;48.314;11.562;2022-11-15T00:38:38;22.40;73.60
1956;DHT22;978;48.314;11.562;2022-11-15T00:41:08;22.40;73.60
1956;DHT22;978;48.314;11.562;2022-11-15T00:43:34;22.40;73.60
1956;DHT22;978;48.314;11.562;2022-11-15T00:46:02;22.40;73.60
1956;DHT22;978;48.314;11.562;2022-11-15T00:48:30;22.40;73.60
1956;DHT22;978;48.314;11.562;2022-11-15T00:50:58;22.40;73.60
1956;DHT22;978;48.314;11.562;2022-11-15T00:53:24;22.40;73.70
1956;DHT22;978;48.314;11.562;2022-11-15T00:55:51;22.40;73.60
1956;DHT22;978;48.314;11.562;2022-11-15T00:58:19;22.30;73.60
1956;DHT22;978;48.314;11.562;2022-11-15T01:00:46;22.40;73.60
1956;DHT22;978;48.314;11.562;2022-11-15T01:03:13;22.40;73.70
1956;DHT22;978;48.314;11.562;2022-11-15T01:05:40;22.40;73.70
1956;DHT22;978;48.314;11.562;2022-11-15T01:08:12;22.40;73.60
1956;DHT22;978;48.314;11.562;2022-11-15T01:10:38;22.40;73.70
1956;DHT22;978;48.314;11.562;2022-11-15T01:13:05;22.40;73.60
1956;DHT22;978;48.314;11.562;2022-11-15T01:15:33;22.40;73.70
1956;DHT22;978;48.314;11.562;2022-11-15T01:18:00;22.40;73.70
1956;DHT22;978;48.314;11.562;2022-11-15T01:20:27;22.40;74.20
1956;DHT22;978;48.314;11.562;2022-11-15T01:22:54;22.40;73.70
1956;DHT22;978;48.314;11.562;2022-11-15T01:25:20;22.30;73.60
1956;DHT22;978;48.314;11.562;2022-11-15T01:27:47;22.40;73.70
1956;DHT22;978;48.314;11.562;2022-11-15T01:30:14;22.40;73.70
1956;DHT22;978;48.314;11.562;2022-11-15T01:32:42;22.40;73.70
1956;DHT22;978;48.314;11.562;2022-11-15T01:35:09;22.40;73.70
1956;DHT22;978;48.314;11.562;2022-11-15T01:37:36;22.40;73.70
1956;DHT22;978;48.314;11.562;2022-11-15T01:40:03;22.30;73.60
1956;DHT22;978;48.314;11.562;2022-11-15T01:42:30;22.30;73.60
1956;DHT22;978;48.314;11.562;2022-11-15T01:44:57;22.30;73.60
1956;DHT22;978;48.314;11.562;2022-11-15T01:47:28;22.40;73.70
1956;DHT22;978;48.314;11.562;2022-11-15T01:49:59;22.40;73.70
1956;DHT22;978;48.314;11.562;2022-11-15T01:52:29;22.30;73.60
1956;DHT22;978;48.314;11.562;2022-11-15T01:55:00;22.40;73.70
1956;DHT22;978;48.314;11.562;2022-11-15T01:57:28;22.30;73.70
1956;DHT22;978;48.314;11.562;2022-11-15T01:59:56;22.30;73.60
1956;DHT22;978;48.314;11.562;2022-11-15T02:02:23;22.40;73.70
1956;DHT22;978;48.314;11.562;2022-11-15T02:04:50;22.40;73.70
1956;DHT22;978;48.314;11.562;2022-11-15T02:07:20;22.40;73.70
1956;DHT22;978;48.314;11.562;2022-11-15T02:09:48;22.40;73.70
1956;DHT22;978;48.314;11.562;2022-11-15T02:12:19;22.40;73.70
1956;DHT22;978;48.314;11.562;2022-11-15T02:14:49;22.40;73.70
1956;DHT22;978;48.314;11.562;2022-11-15T02:17:31;22.30;73.60
1956;DHT22;978;48.314;11.562;2022-11-15T02:20:35;22.40;73.70
1956;DHT22;978;48.314;11.562;2022-11-15T02:23:31;22.40;73.70
1956;DHT22;978;48.314;11.562;2022-11-15T02:26:32;22.30;73.70
1956;DHT22;978;48.314;11.562;2022-11-15T02:29:05;22.40;73.70
1956;DHT22;978;48.314;11.562;2022-11-15T02:31:40;22.30;73.70
1956;DHT22;978;48.314;11.562;2022-11-15T02:34:11;22.40;73.70
1956;DHT22;978;48.314;11.562;2022-11-15T02:36:47;22.40;73.70
1956;DHT22;978;48.314;11.562;2022-11-15T02:39:21;22.40;73.70
1956;DHT22;978;48.314;11.562;2022-11-15T02:41:54;22.40;73.70
1956;DHT22;978;48.314;11.562;2022-11-15T02:44:25;22.40;73.70
1956;DHT22;978;48.314;11.562;2022-11-15T02:46:55;22.40;73.80
1956;DHT22;978;48.314;11.562;2022-11-15T02:49:45;22.30;73.70
1956;DHT22;978;48.314;11.562;2022-11-15T02:52:15;22.40;73.70
1956;DHT22;978;48.314;11.562;2022-11-15T02:54:43;22.40;73.80
1956;DHT22;978;48.314;11.562;2022-11-15T02:57:25;22.30;73.70
1956;DHT22;978;48.314;11.562;2022-11-15T03:00:11;22.40;73.80
1956;DHT22;978;48.314;11.562;2022-11-15T03:03:05;22.40;73.80
1956;DHT22;978;48.314;11.562;2022-11-15T03:05:39;22.40;73.70
1956;DHT22;978;48.314;11.562;2022-11-15T03:08:12;22.30;73.70
1956;DHT22;978;48.314;11.562;2022-11-15T03:10:50;22.40;73.80
1956;DHT22;978;48.314;11.562;2022-11-15T03:13:26;22.40;73.70
1956;DHT22;978;48.314;11.562;2022-11-15T03:15:57;22.40;73.80
1956;DHT22;978;48.314;11.562;2022-11-15T03:18:32;22.40;73.80
1956;DHT22;978;48.314;11.562;2022-11-15T03:21:01;22.30;73.80
1956;DHT22;978;48.314;11.562;2022-11-15T03:23:30;22.40;73.80
1956;DHT22;978;48.314;11.562;2022-11-15T03:25:59;22.30;73.70
1956;DHT22;978;48.314;11.562;2022-11-15T03:28:32;22.40;73.80
1956;DHT22;978;48.314;11.562;2022-11-15T03:31:01;22.30;73.70
1956;DHT22;978;48.314;11.562;2022-11-15T03:33:53;22.40;73.80
1956;DHT22;978;48.314;11.562;2022-11-15T03:36:22;22.40;73.80
1956;DHT22;978;48.314;11.562;2022-11-15T03:38:54;22.30;73.80
1956;DHT22;978;48.314;11.562;2022-11-15T03:41:25;22.40;73.80
1956;DHT22;978;48.314;11.562;2022-11-15T03:43:57;22.30;73.70
1956;DHT22;978;48.314;11.562;2022-11-15T03:46:31;22.40;73.80
1956;DHT22;978;48.314;11.562;2022-11-15T03:49:07;22.30;73.70
1956;DHT22;978;48.314;11.562;2022-11-15T03:51:34;22.40;73.80
1956;DHT22;978;48.314;11.562;2022-11-15T03:54:02;22.30;73.80
1956;DHT22;978;48.314;11.562;2022-11-15T03:56:29;22.40;73.80
1956;DHT22;978;48.314;11.562;2022-11-15T03:58:56;22.30;73.70
1956;DHT22;978;48.314;11.562;2022-11-15T04:01:23;22.30;73.80
1956;DHT22;978;48.314;11.562;2022-11-15T04:03:50;22.30;73.80
1956;DHT22;978;48.314;11.562;2022-11-15T04:06:20;22.40;73.80
1956;DHT22;978;48.314;11.562;2022-11-15T04:08:46;22.30;73.80
1956;DHT22;978;48.314;11.562;2022-11-15T04:11:13;22.40;73.80
1956;DHT22;978;48.314;11.562;2022-11-15T04:13:40;22.30;73.80
1956;DHT22;978;48.314;11.562;2022-11-15T04:16:07;22.30;73.70
1956;DHT22;978;48.314;11.562;2022-11-15T04:18:33;22.40;73.80
1956;DHT22;978;48.314;11.562;2022-11-15T04:21:00;22.40;73.80
1956;DHT22;978;48.314;11.562;2022-11-15T04:23:51;22.40;73.80
1956;DHT22;978;48.314;11.562;2022-11-15T04:26:35;22.30;73.80
1956;DHT22;978;48.314;11.562;2022-11-15T04:29:02;22.30;73.80
1956;DHT22;978;48.314;11.562;2022-11-15T04:31:46;22.40;73.80
1956;DHT22;978;48.314;11.562;2022-11-15T04:34:13;22.30;73.80
1956;DHT22;978;48.314;11.562;2022-11-15T04:36:40;22.30;73.80
1956;DHT22;978;48.314;11.562;2022-11-15T04:39:25;22.30;73.80
1956;DHT22;978;48.314;11.562;2022-11-15T04:41:52;22.40;73.80
1956;DHT22;978;48.314;11.562;2022-11-15T04:44:19;22.30;73.80
1956;DHT22;978;48.314;11.562;2022-11-15T04:46:45;22.40;73.80
1956;DHT22;978;48.314;11.562;2022-11-15T04:49:12;22.30;73.70
1956;DHT22;978;48.314;11.562;2022-11-15T04:51:39;22.30;73.80
1956;DHT22;978;48.314;11.562;2022-11-15T04:54:06;22.30;73.70
1956;DHT22;978;48.314;11.562;2022-11-15T04:56:34;22.30;73.80
1956;DHT22;978;48.314;11.562;2022-11-15T04:59:01;22.40;73.80
1956;DHT22;978;48.314;11.562;2022-11-15T05:01:27;22.30;73.80
1956;DHT22;978;48.314;11.562;2022-11-15T05:03:54;22.30;73.80
1956;DHT22;978;48.314;11.562;2022-11-15T05:06:38;22.40;73.80
1956;DHT22;978;48.314;11.562;2022-11-15T05:09:05;22.40;73.80
1956;DHT22;978;48.314;11.562;2022-11-15T05:11:33;22.40;73.80
1956;DHT22;978;48.314;11.562;2022-11-15T05:14:01;22.30;73.70
1956;DHT22;978;48.314;11.562;2022-11-15T05:16:29;22.40;73.70
1956;DHT22;978;48.314;11.562;2022-11-15T05:18:58;22.40;73.80
1956;DHT22;978;48.314;11.562;2022-11-15T05:21:25;22.40;73.90
1956;DHT22;978;48.314;11.562;2022-11-15T05:23:51;22.40;73.90
1956;DHT22;978;48.314;11.562;2022-11-15T05:26:18;22.30;73.60
1956;DHT22;978;48.314;11.562;2022-11-15T05:28:46;22.40;73.70
1956;DHT22;978;48.314;11.562;2022-11-15T05:31:18;22.30;73.80
1956;DHT22;978;48.314;11.562;2022-11-15T05:33:44;22.40;73.80
1956;DHT22;978;48.314;11.562;2022-11-15T05:36:14;22.40;73.90
1956;DHT22;978;48.314;11.562;2022-11-15T05:38:43;22.40;73.90
1956;DHT22;978;48.314;11.562;2022-11-15T05:41:10;22.30;73.80
1956;DHT22;978;48.314;11.562;2022-11-15T05:43:39;22.30;73.90
1956;DHT22;978;48.314;11.562;2022-11-15T05:46:08;22.40;74.00
1956;DHT22;978;48.314;11.562;2022-11-15T05:48:36;22.40;74.50
1956;DHT22;978;48.314;11.562;2022-11-15T05:51:05;22.30;73.90
1956;DHT22;978;48.314;11.562;2022-11-15T05:53:33;22.30;73.90
1956;DHT22;978;48.314;11.562;2022-11-15T05:56:03;22.30;73.90
1956;DHT22;978;48.314;11.562;2022-11-15T05:58:32;22.40;74.00
1956;DHT22;978;48.314;11.562;2022-11-15T06:01:00;22.40;74.00
1956;DHT22;978;48.314;11.562;2022-11-15T06:03:28;22.30;73.90
1956;DHT22;978;48.314;11.562;2022-11-15T06:05:56;22.30;73.90
1956;DHT22;978;48.314;11.562;2022-11-15T06:08:22;22.30;74.00
1956;DHT22;978;48.314;11.562;2022-11-15T06:10:52;22.40;74.00
1956;DHT22;978;48.314;11.562;2022-11-15T06:13:18;22.30;73.90
1956;DHT22;978;48.314;11.562;2022-11-15T06:15:45;22.30;73.90
1956;DHT22;978;48.314;11.562;2022-11-15T06:18:12;22.30;73.90
1956;DHT22;978;48.314;11.562;2022-11-15T06:20:40;22.30;74.00
1956;DHT22;978;48.314;11.562;2022-11-15T06:23:07;22.40;74.60
1956;DHT22;978;48.314;11.562;2022-11-15T06:25:34;22.30;73.90
1956;DHT22;978;48.314;11.562;2022-11-15T06:28:00;22.30;74.00
1956;DHT22;978;48.314;11.562;2022-11-15T06:30:27;22.40;74.00
1956;DHT22;978;48.314;11.562;2022-11-15T06:32:59;22.30;74.00
1956;DHT22;978;48.314;11.562;2022-11-15T06:35:27;22.30;74.00
1956;DHT22;978;48.314;11.562;2022-11-15T06:37:56;22.30;74.10
1956;DHT22;978;48.314;11.562;2022-11-15T06:40:27;22.40;74.10
1956;DHT22;978;48.314;11.562;2022-11-15T06:42:57;22.30;74.10
1956;DHT22;978;48.314;11.562;2022-11-15T06:45:24;22.40;74.10
1956;DHT22;978;48.314;11.562;2022-11-15T06:47:51;22.30;74.10
1956;DHT22;978;48.314;11.562;2022-11-15T06:50:18;22.40;74.10
1956;DHT22;978;48.314;11.562;2022-11-15T06:52:44;22.30;74.10
1956;DHT22;978;48.314;11.562;2022-11-15T06:55:13;22.40;74.20
1956;DHT22;978;48.314;11.562;2022-11-15T06:57:47;22.40;74.20
1956;DHT22;978;48.314;11.562;2022-11-15T07:00:15;22.30;74.10
1956;DHT22;978;48.314;11.562;2022-11-15T07:02:42;22.30;74.10
1956;DHT22;978;48.314;11.562;2022-11-15T07:05:09;22.30;74.10
1956;DHT22;978;48.314;11.562;2022-11-15T07:07:38;22.30;74.10
1956;DHT22;978;48.314;11.562;2022-11-15T07:10:06;22.30;74.10
1956;DHT22;978;48.314;11.562;2022-11-15T07:12:34;22.30;74.10
1956;DHT22;978;48.314;11.562;2022-11-15T07:15:01;22.30;74.10
1956;DHT22;978;48.314;11.562;2022-11-15T07:17:40;22.30;74.20
1956;DHT22;978;48.314;11.562;2022-11-15T07:20:07;22.30;74.10
1956;DHT22;978;48.314;11.562;2022-11-15T07:22:34;22.30;74.10
1956;DHT22;978;48.314;11.562;2022-11-15T07:25:01;22.30;74.10
1956;DHT22;978;48.314;11.562;2022-11-15T07:27:28;22.30;74.20
1956;DHT22;978;48.314;11.562;2022-11-15T07:29:56;22.30;74.10
1956;DHT22;978;48.314;11.562;2022-11-15T07:32:23;22.30;74.10
1956;DHT22;978;48.314;11.562;2022-11-15T07:34:49;22.30;74.00
1956;DHT22;978;48.314;11.562;2022-11-15T07:37:16;22.30;74.20
1956;DHT22;978;48.314;11.562;2022-11-15T07:39:44;22.30;74.20
1956;DHT22;978;48.314;11.562;2022-11-15T07:42:12;22.30;74.20
1956;DHT22;978;48.314;11.562;2022-11-15T07:44:58;22.30;74.30
1956;DHT22;978;48.314;11.562;2022-11-15T07:47:24;22.30;74.30
1956;DHT22;978;48.314;11.562;2022-11-15T07:49:51;22.40;74.30
1956;DHT22;978;48.314;11.562;2022-11-15T07:52:18;22.30;74.20
1956;DHT22;978;48.314;11.562;2022-11-15T07:54:45;22.30;74.20
1956;DHT22;978;48.314;11.562;2022-11-15T07:57:12;22.30;74.30
1956;DHT22;978;48.314;11.562;2022-11-15T07:59:38;22.30;74.20
1956;DHT22;978;48.314;11.562;2022-11-15T08:02:08;22.30;74.30
1956;DHT22;978;48.314;11.562;2022-11-15T08:04:36;22.30;74.30
1956;DHT22;978;48.314;11.562;2022-11-15T08:07:03;22.30;74.30
1956;DHT22;978;48.314;11.562;2022-11-15T08:09:32;22.30;74.30
1956;DHT22;978;48.314;11.562;2022-11-15T08:11:59;22.40;74.30
1956;DHT22;978;48.314;11.562;2022-11-15T08:14:26;22.30;74.30
1956;DHT22;978;48.314;11.562;2022-11-15T08:16:54;22.30;74.30
1956;DHT22;978;48.314;11.562;2022-11-15T08:19:22;22.30;74.20
1956;DHT22;978;48.314;11.562;2022-11-15T08:21:49;22.30;74.30
1956;DHT22;978;48.314;11.562;2022-11-15T08:24:16;22.30;74.40
1956;DHT22;978;48.314;11.562;2022-11-15T08:26:43;22.30;74.30
1956;DHT22;978;48.314;11.562;2022-11-15T08:29:10;22.40;74.40
1956;DHT22;978;48.314;11.562;2022-11-15T08:31:37;22.30;74.30
1956;DHT22;978;48.314;11.562;2022-11-15T08:34:04;22.30;74.40
1956;DHT22;978;48.314;11.562;2022-11-15T08:36:34;22.30;74.40
1956;DHT22;978;48.314;11.562;2022-11-15T08:39:00;22.30;74.40
1956;DHT22;978;48.314;11.562;2022-11-15T08:41:30;22.30;74.50
1956;DHT22;978;48.314;11.562;2022-11-15T08:43:57;22.30;74.50
1956;DHT22;978;48.314;11.562;2022-11-15T08:46:24;22.30;74.40
1956;DHT22;978;48.314;11.562;2022-11-15T08:48:51;22.30;74.50
1956;DHT22;978;48.314;11.562;2022-11-15T08:51:18;22.30;74.50
1956;DHT22;978;48.314;11.562;2022-11-15T08:53:46;22.30;74.50
1956;DHT22;978;48.314;11.562;2022-11-15T08:56:14;22.40;74.50
1956;DHT22;978;48.314;11.562;2022-11-15T08:58:41;22.30;74.50
1956;DHT22;978;48.314;11.562;2022-11-15T09:01:15;22.40;75.20
1956;DHT22;978;48.314;11.562;2022-11-15T09:03:42;22.40;74.60
1956;DHT22;978;48.314;11.562;2022-11-15T09:06:11;22.40;74.60
1956;DHT22;978;48.314;11.562;2022-11-15T09:08:38;22.40;74.60
1956;DHT22;978;48.314;11.562;2022-11-15T09:11:07;22.30;74.50
1956;DHT22;978;48.314;11.562;2022-11-15T09:13:34;22.30;74.60
1956;DHT22;978;48.314;11.562;2022-11-15T09:16:03;22.40;74.60
1956;DHT22;978;48.314;11.562;2022-11-15T09:18:32;22.40;74.60
1956;DHT22;978;48.314;11.562;2022-11-15T09:21:00;22.40;74.70
1956;DHT22;978;48.314;11.562;2022-11-15T09:23:28;22.40;74.70
1956;DHT22;978;48.314;11.562;2022-11-15T09:25:58;22.30;74.70
1956;DHT22;978;48.314;11.562;2022-11-15T09:28:29;22.40;74.70
1956;DHT22;978;48.314;11.562;2022-11-15T09:30:57;22.30;74.70
1956;DHT22;978;48.314;11.562;2022-11-15T09:33:26;22.40;74.80
1956;DHT22;978;48.314;11.562;2022-11-15T09:35:54;22.40;74.80
1956;DHT22;978;48.314;11.562;2022-11-15T09:38:20;22.40;74.80
1956;DHT22;978;48.314;11.562;2022-11-15T09:40:51;22.40;74.80
1956;DHT22;978;48.314;11.562;2022-11-15T09:43:32;22.40;74.80
1956;DHT22;978;48.314;11.562;2022-11-15T09:46:15;22.40;74.90
1956;DHT22;978;48.314;11.562;2022-11-15T09:48:50;22.40;74.80
1956;DHT22;978;48.314;11.562;2022-11-15T09:51:27;22.40;74.90
1956;DHT22;978;48.314;11.562;2022-11-15T09:54:00;22.40;74.90
1956;DHT22;978;48.314;11.562;2022-11-15T09:56:30;22.40;74.90
1956;DHT22;978;48.314;11.562;2022-11-15T09:59:09;22.30;74.90
1956;DHT22;978;48.314;11.562;2022-11-15T10:01:46;22.40;75.00
1956;DHT22;978;48.314;11.562;2022-11-15T10:04:16;22.40;75.00
1956;DHT22;978;48.314;11.562;2022-11-15T10:06:48;22.40;75.00
1956;DHT22;978;48.314;11.562;2022-11-15T10:09:22;22.30;75.00
1956;DHT22;978;48.314;11.562;2022-11-15T10:11:57;22.40;75.10
1956;DHT22;978;48.314;11.562;2022-11-15T10:14:27;22.40;75.00
1956;DHT22;978;48.314;11.562;2022-11-15T10:17:26;22.40;75.00
1956;DHT22;978;48.314;11.562;2022-11-15T10:20:02;22.40;75.10
1956;DHT22;978;48.314;11.562;2022-11-15T10:22:38;22.40;75.10
1956;DHT22;978;48.314;11.562;2022-11-15T10:25:18;22.30;75.00
1956;DHT22;978;48.314;11.562;2022-11-15T10:27:52;22.40;74.90
1956;DHT22;978;48.314;11.562;2022-11-15T10:30:21;22.40;74.90
1956;DHT22;978;48.314;11.562;2022-11-15T10:32:48;22.40;74.80
1956;DHT22;978;48.314;11.562;2022-11-15T10:35:21;22.40;74.80
1956;DHT22;978;48.314;11.562;2022-11-15T10:37:48;22.40;74.80
1956;DHT22;978;48.314;11.562;2022-11-15T10:40:17;22.40;74.80
1956;DHT22;978;48.314;11.562;2022-11-15T10:42:45;22.40;74.80
1956;DHT22;978;48.314;11.562;2022-11-15T10:45:33;22.40;74.90
1956;DHT22;978;48.314;11.562;2022-11-15T10:48:27;22.40;74.90
1956;DHT22;978;48.314;11.562;2022-11-15T10:50:56;22.40;74.90
1956;DHT22;978;48.314;11.562;2022-11-15T10:53:31;22.40;74.90
1956;DHT22;978;48.314;11.562;2022-11-15T10:56:01;22.40;74.90
1956;DHT22;978;48.314;11.562;2022-11-15T10:58:36;22.40;75.00
1956;DHT22;978;48.314;11.562;2022-11-15T11:01:13;22.40;75.00
1956;DHT22;978;48.314;11.562;2022-11-15T11:03:42;22.40;75.00
1956;DHT22;978;48.314;11.562;2022-11-15T11:06:12;22.40;75.10
1956;DHT22;978;48.314;11.562;2022-11-15T11:08:39;22.40;75.00
1956;DHT22;978;48.314;11.562;2022-11-15T11:11:07;22.40;75.00
1956;DHT22;978;48.314;11.562;2022-11-15T11:13:37;22.40;75.00
1956;DHT22;978;48.314;11.562;2022-11-15T11:16:26;22.40;75.10
1956;DHT22;978;48.314;11.562;2022-11-15T11:19:04;22.40;75.10
1956;DHT22;978;48.314;11.562;2022-11-15T11:21:48;22.40;75.10
1956;DHT22;978;48.314;11.562;2022-11-15T11:24:22;22.40;75.10
1956;DHT22;978;48.314;11.562;2022-11-15T11:27:13;22.40;75.10
1956;DHT22;978;48.314;11.562;2022-11-15T11:29:52;22.40;75.10
1956;DHT22;978;48.314;11.562;2022-11-15T11:32:39;22.40;75.20
1956;DHT22;978;48.314;11.562;2022-11-15T11:35:13;22.40;75.20
1956;DHT22;978;48.314;11.562;2022-11-15T11:37:56;22.40;75.20
1956;DHT22;978;48.314;11.562;2022-11-15T11:40:30;22.40;75.20
1956;DHT22;978;48.314;11.562;2022-11-15T11:43:06;22.40;75.20
1956;DHT22;978;48.314;11.562;2022-11-15T11:45:53;22.40;75.50
1956;DHT22;978;48.314;11.562;2022-11-15T11:48:39;22.40;75.20
1956;DHT22;978;48.314;11.562;2022-11-15T11:51:13;22.40;75.30
1956;DHT22;978;48.314;11.562;2022-11-15T11:53:47;22.40;75.30
1956;DHT22;978;48.314;11.562;2022-11-15T11:56:22;22.40;75.30
1956;DHT22;978;48.314;11.562;2022-11-15T11:58:50;22.40;75.30
1956;DHT22;978;48.314;11.562;2022-11-15T12:01:22;22.30;75.20
1956;DHT22;978;48.314;11.562;2022-11-15T12:03:57;22.40;75.40
1956;DHT22;978;48.314;11.562;2022-11-15T12:06:32;22.40;75.30
1956;DHT22;978;48.314;11.562;2022-11-15T12:09:04;22.40;75.30
1956;DHT22;978;48.314;11.562;2022-11-15T12:11:38;22.40;75.40
1956;DHT22;978;48.314;11.562;2022-11-15T12:14:16;22.40;75.40
1956;DHT22;978;48.314;11.562;2022-11-15T12:16:44;22.40;75.40
1956;DHT22;978;48.314;11.562;2022-11-15T12:19:12;22.40;75.40
1956;DHT22;978;48.314;11.562;2022-11-15T12:21:43;22.40;75.40
1956;DHT22;978;48.314;11.562;2022-11-15T12:24:16;22.40;75.40
1956;DHT22;978;48.314;11.562;2022-11-15T12:26:49;22.40;75.40
1956;DHT22;978;48.314;11.562;2022-11-15T12:29:22;22.40;75.40
1956;DHT22;978;48.314;11.562;2022-11-15T12:31:52;22.40;75.40
1956;DHT22;978;48.314;11.562;2022-11-15T12:34:41;22.40;75.50
1956;DHT22;978;48.314;11.562;2022-11-15T12:37:48;22.40;75.50
1956;DHT22;978;48.314;11.562;2022-11-15T12:40:35;22.40;75.50
1956;DHT22;978;48.314;11.562;2022-11-15T12:45:47;22.40;75.60
1956;DHT22;978;48.314;11.562;2022-11-15T12:55:01;22.40;75.40
1956;DHT22;978;48.314;11.562;2022-11-15T12:57:42;22.40;75.40
1956;DHT22;978;48.314;11.562;2022-11-15T13:03:26;22.40;75.20
1956;DHT22;978;48.314;11.562;2022-11-15T13:06:00;22.40;75.10
1956;DHT22;978;48.314;11.562;2022-11-15T13:08:48;22.30;75.00
1956;DHT22;978;48.314;11.562;2022-11-15T13:11:51;22.30;74.70
1956;DHT22;978;48.314;11.562;2022-11-15T13:14:41;22.40;74.80
1956;DHT22;978;48.314;11.562;2022-11-15T13:17:23;22.30;74.60
1956;DHT22;978;48.314;11.562;2022-11-15T13:19:55;22.30;74.60
1956;DHT22;978;48.314;11.562;2022-11-15T13:22:24;22.30;74.50
1956;DHT22;978;48.314;11.562;2022-11-15T13:25:15;22.30;74.40
1956;DHT22;978;48.314;11.562;2022-11-15T13:27:47;22.30;74.20
1956;DHT22;978;48.314;11.562;2022-11-15T13:30:19;22.40;74.30
1956;DHT22;978;48.314;11.562;2022-11-15T13:32:46;22.30;73.90
1956;DHT22;978;48.314;11.562;2022-11-15T13:35:19;22.40;73.10
1956;DHT22;978;48.314;11.562;2022-11-15T13:37:47;22.30;72.50
1956;DHT22;978;48.314;11.562;2022-11-15T13:40:23;22.30;72.90
1956;DHT22;978;48.314;11.562;2022-11-15T13:42:54;22.30;73.70
1956;DHT22;978;48.314;11.562;2022-11-15T13:45:21;22.30;73.60
1956;DHT22;978;48.314;11.562;2022-11-15T13:47:57;22.40;73.50
1956;DHT22;978;48.314;11.562;2022-11-15T13:50:27;22.30;73.20
1956;DHT22;978;48.314;11.562;2022-11-15T13:52:57;22.30;73.20
1956;DHT22;978;48.314;11.562;2022-11-15T13:55:25;22.40;73.20
1956;DHT22;978;48.314;11.562;2022-11-15T13:57:54;22.30;73.20
1956;DHT22;978;48.314;11.562;2022-11-15T14:00:29;22.40;73.40
1956;DHT22;978;48.314;11.562;2022-11-15T14:02:57;22.40;73.40
1956;DHT22;978;48.314;11.562;2022-11-15T14:05:31;22.40;73.40
1956;DHT22;978;48.314;11.562;2022-11-15T14:07:59;22.40;73.50
1956;DHT22;978;48.314;11.562;2022-11-15T14:10:32;22.40;73.60
1956;DHT22;978;48.314;11.562;2022-11-15T14:13:01;22.40;73.60
1956;DHT22;978;48.314;11.562;2022-11-15T14:15:30;22.40;73.70
1956;DHT22;978;48.314;11.562;2022-11-15T14:17:57;22.40;73.70
1956;DHT22;978;48.314;11.562;2022-11-15T14:20:32;22.40;73.70
1956;DHT22;978;48.314;11.562;2022-11-15T14:23:00;22.40;73.80
1956;DHT22;978;48.314;11.562;2022-11-15T14:25:28;22.40;73.80
1956;DHT22;978;48.314;11.562;2022-11-15T14:28:12;22.40;73.80
1956;DHT22;978;48.314;11.562;2022-11-15T14:30:41;22.40;73.90
1956;DHT22;978;48.314;11.562;2022-11-15T14:33:27;22.40;73.90
1956;DHT22;978;48.314;11.562;2022-11-15T14:35:56;22.40;74.60
1956;DHT22;978;48.314;11.562;2022-11-15T14:38:23;22.40;74.00
1956;DHT22;978;48.314;11.562;2022-11-15T14:40:50;22.40;74.00
1956;DHT22;978;48.314;11.562;2022-11-15T14:43:18;22.40;74.10
1956;DHT22;978;48.314;11.562;2022-11-15T14:45:46;22.40;74.10
1956;DHT22;978;48.314;11.562;2022-11-15T14:48:13;22.40;74.10
1956;DHT22;978;48.314;11.562;2022-11-15T14:50:41;22.40;74.20
1956;DHT22;978;48.314;11.562;2022-11-15T14:53:12;22.40;74.20
1956;DHT22;978;48.314;11.562;2022-11-15T14:55:39;22.40;74.20
1956;DHT22;978;48.314;11.562;2022-11-15T14:58:07;22.40;74.30
1956;DHT22;978;48.314;11.562;2022-11-15T15:00:36;22.40;74.30
1956;DHT22;978;48.314;11.562;2022-11-15T15:03:04;22.40;74.40
1956;DHT22;978;48.314;11.562;2022-11-15T15:05:33;22.40;74.30
1956;DHT22;978;48.314;11.562;2022-11-15T15:08:01;22.40;74.40
1956;DHT22;978;48.314;11.562;2022-11-15T15:10:31;22.40;74.40
1956;DHT22;978;48.314;11.562;2022-11-15T15:12:59;22.40;74.40
1956;DHT22;978;48.314;11.562;2022-11-15T15:15:31;22.40;74.50
1956;DHT22;978;48.314;11.562;2022-11-15T15:17:59;22.40;74.50
1956;DHT22;978;48.314;11.562;2022-11-15T15:20:28;22.40;74.50
1956;DHT22;978;48.314;11.562;2022-11-15T15:22:55;22.40;74.50
1956;DHT22;978;48.314;11.562;2022-11-15T15:25:23;22.40;74.60
1956;DHT22;978;48.314;11.562;2022-11-15T15:27:52;22.40;74.60
1956;DHT22;978;48.314;11.562;2022-11-15T15:30:19;22.40;74.60
1956;DHT22;978;48.314;11.562;2022-11-15T15:32:47;22.40;74.60
1956;DHT22;978;48.314;11.562;2022-11-15T15:35:18;22.40;74.70
1956;DHT22;978;48.314;11.562;2022-11-15T15:37:46;22.40;74.70
1956;DHT22;978;48.314;11.562;2022-11-15T15:40:15;22.40;74.70
1956;DHT22;978;48.314;11.562;2022-11-15T15:42:43;22.40;74.70
1956;DHT22;978;48.314;11.562;2022-11-15T15:45:11;22.40;74.80
1956;DHT22;978;48.314;11.562;2022-11-15T15:47:38;22.40;74.80
1956;DHT22;978;48.314;11.562;2022-11-15T15:50:14;22.40;74.80
1956;DHT22;978;48.314;11.562;2022-11-15T15:52:45;22.40;74.80
1956;DHT22;978;48.314;11.562;2022-11-15T15:55:12;22.40;74.80
1956;DHT22;978;48.314;11.562;2022-11-15T15:57:38;22.40;74.80
1956;DHT22;978;48.314;11.562;2022-11-15T16:00:06;22.40;74.80
1956;DHT22;978;48.314;11.562;2022-11-15T16:02:33;22.40;74.90
1956;DHT22;978;48.314;11.562;2022-11-15T16:05:00;22.40;74.90
1956;DHT22;978;48.314;11.562;2022-11-15T16:07:27;22.40;74.90
1956;DHT22;978;48.314;11.562;2022-11-15T16:09:56;22.40;74.90
1956;DHT22;978;48.314;11.562;2022-11-15T16:12:30;22.40;74.90
1956;DHT22;978;48.314;11.562;2022-11-15T16:14:57;22.40;75.50
1956;DHT22;978;48.314;11.562;2022-11-15T16:17:26;22.40;75.00
1956;DHT22;978;48.314;11.562;2022-11-15T16:19:54;22.40;75.00
1956;DHT22;978;48.314;11.562;2022-11-15T16:22:20;22.40;75.00
1956;DHT22;978;48.314;11.562;2022-11-15T16:24:47;22.40;75.00
1956;DHT22;978;48.314;11.562;2022-11-15T16:27:16;22.40;75.00
1956;DHT22;978;48.314;11.562;2022-11-15T16:29:43;22.30;75.00
1956;DHT22;978;48.314;11.562;2022-11-15T16:32:10;22.40;75.50
1956;DHT22;978;48.314;11.562;2022-11-15T16:34:39;22.40;75.10
1956;DHT22;978;48.314;11.562;2022-11-15T16:37:08;22.40;75.10
1956;DHT22;978;48.314;11.562;2022-11-15T16:39:38;22.40;75.20